Time;durP1;ratioP1;P1;durP2;ratioP2;P2;SDS_P1;SDS_P2;PMS_P1;PMS_P2;Temp;Humidity;BMP_temperature;BMP_pressure;BME280_temperature;BME280_humidity;BME280_pressure;Samples;Min_cycle;Max_cycle;Signal;HPM_P1;HPM_P2
2022/08/04 00:01:52;;;;;;;6.03;2.47;;;20.10;99.90;;;-144.05;67.46;125687.94;4940180;29;20118;-86
2022/08/04 00:04:48;;;;;;;4.30;2.42;;;20.10;99.90;;;-144.05;67.80;125687.94;4940095;29;20217;-88
2022/08/04 00:07:50;;;;;;;6.82;2.70;;;20.00;99.90;;;-144.05;67.92;125687.94;4939835;29;20369;-88
2022/08/04 00:10:19;;;;;;;6.97;2.40;;;20.10;99.90;;;-144.05;67.79;125687.94;4939886;29;20035;-89
2022/08/04 00:12:56;;;;;;;7.20;2.50;;;20.10;99.90;;;-144.05;68.35;125687.94;4940346;29;20067;-87
2022/08/04 00:15:25;;;;;;;7.53;2.47;;;20.10;99.90;;;-144.05;68.80;125687.94;4939755;29;20488;-90
2022/08/04 00:18:06;;;;;;;7.53;2.78;;;20.00;99.90;;;-144.05;69.25;125687.94;4941151;29;20037;-87
2022/08/04 00:20:39;;;;;;;4.45;2.65;;;19.90;99.90;;;-144.05;69.64;125687.94;4954032;28;20092;-84
2022/08/04 00:23:08;;;;;;;6.50;2.38;;;19.80;99.90;;;-144.05;69.88;125687.94;4956311;28;20485;-88
2022/08/04 00:25:41;;;;;;;5.68;2.63;;;19.70;99.90;;;-144.05;70.37;125687.94;4939369;29;20031;-88
2022/08/04 00:28:07;;;;;;;7.57;2.78;;;19.70;99.90;;;-144.05;70.73;125687.94;4956494;29;20036;-88
2022/08/04 00:30:34;;;;;;;4.53;2.83;;;19.60;99.90;;;-144.05;70.96;125687.94;4939028;29;20062;-87
2022/08/04 00:33:03;;;;;;;5.63;2.58;;;19.50;99.90;;;-144.05;71.27;125687.94;4939138;29;20085;-88
2022/08/04 00:35:39;;;;;;;5.63;2.45;;;19.50;99.90;;;-144.05;71.69;125687.94;4939117;29;20082;-87
2022/08/04 00:38:07;;;;;;;;;;;19.40;99.90;;;-144.05;73.06;125687.94;4939232;29;20390;-90
2022/08/04 00:41:03;;;;;;;3.90;2.20;;;19.40;99.90;;;-144.05;72.51;125687.94;4939028;29;20451;-89
2022/08/04 00:44:01;;;;;;;7.03;2.33;;;19.40;99.90;;;-144.05;72.70;125687.94;4939304;29;20035;-90
2022/08/04 00:47:15;;;;;;;7.53;2.55;;;19.40;99.90;;;-144.05;72.73;125687.94;4938696;29;20038;-90
2022/08/04 00:50:33;;;;;;;6.32;2.38;;;19.40;99.90;;;-144.05;72.86;125687.94;4938563;29;20090;-90
2022/08/04 00:53:31;;;;;;;6.53;2.10;;;19.30;99.90;;;-144.05;72.90;125687.94;4939026;29;20031;-86
2022/08/04 00:56:14;;;;;;;5.20;2.08;;;19.30;99.90;;;-144.05;73.36;125687.94;4937795;29;20497;-86
2022/08/04 00:59:46;;;;;;;5.47;2.22;;;19.30;99.90;;;-144.05;73.39;125687.94;4938666;29;20489;-88
2022/08/04 01:02:49;;;;;;;4.85;2.22;;;19.30;99.90;;;-144.05;73.24;125687.94;4923432;29;20177;-87
2022/08/04 01:06:05;;;;;;;6.38;2.25;;;19.30;99.90;;;-144.05;73.40;125687.94;4938267;29;20031;-88
2022/08/04 01:09:03;;;;;;;4.25;2.28;;;19.30;99.90;;;-144.05;73.80;125687.94;4938363;29;20035;-88
2022/08/04 01:12:31;;;;;;;13.68;3.20;;;19.20;99.90;;;-144.05;74.01;125687.94;4938076;29;20101;-85
2022/08/04 01:15:23;;;;;;;;;;;19.20;99.90;;;-144.05;73.75;125687.94;4938997;29;20035;-86
2022/08/04 01:18:09;;;;;;;3.58;2.05;;;19.20;99.90;;;-144.05;74.00;125687.94;4938839;29;20360;-86
2022/08/04 01:21:19;;;;;;;4.63;2.30;;;19.20;99.90;;;-144.05;73.96;125687.94;4938256;29;20035;-85
2022/08/04 01:24:27;;;;;;;4.28;2.40;;;19.20;99.90;;;-144.05;74.14;125687.94;4953403;29;20405;-87
2022/08/04 01:27:18;;;;;;;5.13;2.58;;;19.10;99.90;;;-144.05;74.31;125687.94;4937754;29;20031;-89
2022/08/04 01:29:58;;;;;;;5.78;2.47;;;19.10;99.90;;;-144.05;74.54;125687.94;4953886;29;20500;-89
2022/08/04 01:32:39;;;;;;;5.30;2.33;;;19.10;99.90;;;-144.05;74.54;125687.94;4937920;29;20039;-89
2022/08/04 01:35:26;;;;;;;6.45;2.30;;;19.10;99.90;;;-144.05;74.63;125687.94;4937445;29;20034;-85
2022/08/04 01:38:32;;;;;;;7.70;2.65;;;19.10;99.90;;;-144.05;74.79;125687.94;4937905;29;20105;-87
2022/08/04 01:41:23;;;;;;;5.43;2.50;;;19.10;99.90;;;-144.05;74.84;125687.94;4937786;29;20027;-89
2022/08/04 01:43:56;;;;;;;3.75;2.30;;;19.00;99.90;;;-144.05;74.87;125687.94;4937906;29;20031;-86
2022/08/04 01:46:32;;;;;;;6.20;2.60;;;18.90;99.90;;;-144.05;75.12;125687.94;4937131;29;20058;-88
2022/08/04 01:49:01;;;;;;;6.00;2.78;;;18.90;99.90;;;-144.05;75.27;125687.94;4937563;29;20094;-88
2022/08/04 01:51:34;;;;;;;7.53;3.20;;;18.80;99.90;;;-144.05;75.58;125687.94;4937913;29;20130;-85
2022/08/04 01:54:06;;;;;;;4.95;2.13;;;18.80;99.90;;;-144.05;75.77;125687.94;4937812;29;20444;-87
2022/08/04 01:56:32;;;;;;;6.20;2.92;;;18.80;99.90;;;-144.05;76.08;125687.94;4955071;29;20106;-87
2022/08/04 01:59:02;;;;;;;4.55;2.35;;;18.80;99.90;;;-144.05;76.32;125687.94;4939910;29;20118;-87
2022/08/04 02:01:36;;;;;;;3.70;2.42;;;18.80;99.90;;;-144.05;76.27;125687.94;4941871;29;20130;-85
2022/08/04 02:04:02;;;;;;;5.55;2.65;;;18.70;99.90;;;-144.05;76.49;125687.94;4941602;29;20118;-84
2022/08/04 02:06:51;;;;;;;7.03;2.60;;;18.70;99.90;;;-144.05;76.66;125687.94;4941628;29;20432;-86
2022/08/04 02:09:30;;;;;;;5.95;2.40;;;18.80;99.90;;;-144.05;76.72;125687.94;4942425;29;20023;-88
2022/08/04 02:12:19;;;;;;;8.20;2.15;;;18.70;99.90;;;-144.05;76.72;125687.94;4957763;29;20033;-87
2022/08/04 02:15:26;;;;;;;7.75;2.72;;;18.70;99.90;;;-144.05;76.85;125687.94;4958463;29;20027;-86
2022/08/04 02:18:14;;;;;;;7.90;2.72;;;18.80;99.90;;;-144.05;76.60;125687.94;4942851;29;20023;-89
2022/08/04 02:20:48;;;;;;;7.35;3.15;;;18.80;99.90;;;-144.05;76.37;125687.94;4947072;29;20015;-85
2022/08/04 02:23:23;;;;;;;7.45;2.80;;;18.70;99.90;;;-144.05;76.35;125687.94;4964702;28;20134;-87
2022/08/04 02:26:02;;;;;;;4.25;2.30;;;18.70;99.90;;;-144.05;76.51;125687.94;4960852;29;20067;-87
2022/08/04 02:28:59;;;;;;;6.20;2.92;;;18.60;99.90;;;-144.05;76.82;125687.94;4942403;29;20302;-87
2022/08/04 02:31:57;;;;;;;4.57;2.53;;;18.40;99.90;;;-144.05;77.33;125687.94;4941517;29;20556;-88
2022/08/04 02:34:53;;;;;;;5.30;2.20;;;18.40;99.90;;;-144.05;77.67;125687.94;4941785;29;20038;-88
2022/08/04 02:37:23;;;;;;;6.80;2.50;;;18.40;99.90;;;-144.05;77.64;125687.94;4941603;29;20027;-86
2022/08/04 02:39:55;;;;;;;6.05;2.80;;;18.40;99.90;;;-144.05;77.81;125687.94;4941747;29;20043;-88
2022/08/04 02:42:22;;;;;;;7.18;2.45;;;18.40;99.90;;;-144.05;77.78;125687.94;4959107;29;20028;-89
2022/08/04 02:44:52;;;;;;;5.75;2.63;;;18.40;99.90;;;-144.05;77.79;125687.94;4959103;29;20027;-89
2022/08/04 02:47:26;;;;;;;6.43;2.42;;;18.50;99.90;;;-144.05;77.63;125687.94;4942092;29;20057;-87
2022/08/04 02:49:55;;;;;;;8.23;3.10;;;18.40;99.90;;;-144.05;77.52;125687.94;4942144;29;20392;-87
2022/08/04 02:52:24;;;;;;;4.78;2.88;;;18.50;99.90;;;-144.05;77.46;125687.94;4942096;29;20477;-87
2022/08/04 02:55:00;;;;;;;5.78;2.80;;;18.40;99.90;;;-144.05;77.58;125687.94;4942175;29;20036;-88
2022/08/04 02:57:32;;;;;;;4.82;2.65;;;18.40;99.90;;;-144.05;77.57;125687.94;4942729;29;20035;-89
2022/08/04 03:00:14;;;;;;;5.47;2.80;;;18.40;99.90;;;-144.05;77.53;125687.94;4942687;29;20050;-87
2022/08/04 03:03:46;;;;;;;7.38;2.53;;;18.40;99.90;;;-144.05;77.73;125687.94;4941638;29;20090;-88
2022/08/04 03:06:54;;;;;;;5.18;2.65;;;18.40;99.90;;;-144.05;77.96;125687.94;4942410;29;20070;-90
2022/08/04 03:09:51;;;;;;;8.48;2.97;;;18.40;99.90;;;-144.05;78.16;125687.94;4942075;29;20046;-90
2022/08/04 03:13:04;;;;;;;5.35;2.50;;;18.40;99.90;;;-144.05;77.91;125687.94;4963212;29;20110;-92
2022/08/04 03:16:41;;;;;;;8.88;2.75;;;18.40;99.90;;;-144.05;77.13;125687.94;4958056;29;20098;-87
2022/08/04 03:19:43;;;;;;;4.95;2.42;;;18.50;99.90;;;-144.05;76.92;125687.94;4940681;29;20068;-88
2022/08/04 03:22:40;;;;;;;6.93;2.83;;;18.60;99.90;;;-144.05;76.89;125687.94;4956470;29;20068;-88
2022/08/04 03:25:33;;;;;;;;;;;18.50;99.90;;;-144.05;76.85;125687.94;4956655;29;20070;-89
2022/08/04 03:29:04;;;;;;;7.65;2.78;;;18.50;99.90;;;-144.05;76.80;125687.94;4940933;29;19915;-87
2022/08/04 03:32:01;;;;;;;5.72;2.70;;;18.50;99.90;;;-144.05;77.11;125687.94;4956164;29;20046;-86
2022/08/04 03:35:19;;;;;;;4.18;2.45;;;18.40;99.90;;;-144.05;77.31;125687.94;4957742;29;20050;-85
2022/08/04 03:38:21;;;;;;;4.78;2.67;;;18.40;99.90;;;-144.05;77.39;125687.94;4956580;29;20046;-88
2022/08/04 03:41:14;;;;;;;6.32;3.00;;;18.40;99.90;;;-144.05;77.45;125687.94;4940591;29;20417;-86
2022/08/04 03:44:50;;;;;;;8.25;3.20;;;18.40;99.90;;;-144.05;77.71;125687.94;4956925;29;20035;-89
2022/08/04 03:48:23;;;;;;;5.25;2.60;;;18.40;99.90;;;-144.05;77.69;125687.94;4931699;29;20035;-90
2022/08/04 03:54:53;;;;;;;5.47;2.85;;;18.40;99.90;;;-144.05;77.71;125687.94;4917004;29;20163;-86
2022/08/04 03:58:16;;;;;;;5.38;2.40;;;18.30;99.90;;;-144.05;77.69;125687.94;4940766;29;20133;-88
2022/08/04 04:01:05;;;;;;;8.43;2.58;;;18.10;99.90;;;-144.05;77.79;125687.94;4940683;29;20031;-87
2022/08/04 04:03:55;;;;;;;6.35;2.63;;;18.00;99.90;;;-144.05;78.36;125687.94;4940375;29;20031;-89
2022/08/04 04:06:39;;;;;;;7.30;3.17;;;18.00;99.90;;;-144.05;78.71;125687.94;4956481;29;20454;-89
2022/08/04 04:10:00;;;;;;;8.23;2.92;;;18.00;99.90;;;-144.05;78.40;125687.94;4957078;29;20031;-87
2022/08/04 04:13:06;;;;;;;6.35;3.38;;;18.00;99.90;;;-144.05;78.51;125687.94;4970095;29;20035;-91
2022/08/04 04:16:11;;;;;;;;;;;;;;;;;;;;;
2022/08/04 04:19:31;;;;;;;8.13;3.45;;;18.10;99.90;;;-144.05;78.63;125687.94;4958274;29;20154;-90
2022/08/04 04:23:45;;;;;;;;;;;;;;;;;;;;;
2022/08/04 09:48:32;;;;;;;2.00;1.05;;;36.10;53.20;;;-144.05;25.10;125687.94;518637;26;20297;-84
2022/08/04 09:51:03;;;;;;;3.15;1.10;;;36.40;51.60;;;-144.05;24.84;125687.94;4933952;29;20059;-89
2022/08/04 09:54:05;;;;;;;4.10;1.35;;;36.40;51.20;;;-144.05;25.16;125687.94;4919694;29;20036;-87
2022/08/04 09:57:26;;;;;;;4.97;1.10;;;36.70;50.90;;;-144.05;23.85;125687.94;4902968;29;20028;-87
2022/08/04 10:00:05;;;;;;;2.05;1.20;;;36.90;48.40;;;-144.05;24.55;125687.94;4918359;29;20032;-87
2022/08/04 10:02:52;;;;;;;2.40;1.00;;;37.20;50.70;;;-144.05;23.88;125687.94;4902238;29;20028;-88
2022/08/04 10:05:35;;;;;;;3.17;1.10;;;37.30;48.90;;;-144.05;23.81;125687.94;4920414;29;20088;-88
2022/08/04 10:08:33;;;;;;;2.67;1.35;;;37.30;48.40;;;-144.05;24.65;125687.94;4903764;29;20067;-87
2022/08/04 10:11:13;;;;;;;1.85;0.90;;;37.20;49.60;;;-144.05;23.80;125687.94;4959430;23;20052;-89
2022/08/04 10:14:09;;;;;;;3.97;1.20;;;36.90;48.40;;;-144.05;24.15;125687.94;4938422;29;20055;-89
2022/08/04 10:16:53;;;;;;;;;;;37.00;49.00;;;-144.05;24.45;125687.94;4922180;29;20032;-90
2022/08/04 10:19:31;;;;;;;3.97;0.90;;;37.30;49.90;;;-144.05;23.84;125687.94;4918995;29;19911;-90
2022/08/04 10:22:28;;;;;;;2.70;0.90;;;37.50;48.30;;;-144.05;23.12;125687.94;4906146;29;20339;-90
2022/08/04 10:25:32;;;;;;;2.17;1.00;;;37.60;45.70;;;-144.05;23.65;125687.94;4921058;29;20032;-90
2022/08/04 10:28:10;;;;;;;1.20;1.10;;;37.60;47.20;;;-144.05;23.80;125687.94;4905666;29;20051;-89
2022/08/04 10:30:48;;;;;;;3.20;0.98;;;37.30;46.40;;;-144.05;24.46;125687.94;4905266;29;20035;-89
2022/08/04 10:33:28;;;;;;;3.22;1.00;;;37.20;49.00;;;-144.05;23.71;125687.94;4921129;29;20053;-92
2022/08/04 10:36:07;;;;;;;2.30;1.05;;;37.10;47.10;;;-144.05;23.43;125687.94;4905644;29;20126;-88
2022/08/04 10:38:58;;;;;;;4.30;0.95;;;37.20;46.10;;;-144.05;24.58;125687.94;4921739;29;20405;-90
2022/08/04 10:41:55;;;;;;;3.70;1.20;;;37.30;49.20;;;-144.05;23.21;125687.94;4905022;29;20466;-89
2022/08/04 10:44:39;;;;;;;4.90;1.13;;;37.50;48.90;;;-144.05;23.89;125687.94;4904419;29;20040;-88
2022/08/04 10:47:18;;;;;;;3.17;1.17;;;37.70;47.50;;;-144.05;23.84;125687.94;4919745;29;20079;-88
2022/08/04 10:49:54;;;;;;;2.15;1.00;;;37.70;48.00;;;-144.05;23.96;125687.94;4904523;29;20517;-88
2022/08/04 10:52:53;;;;;;;1.83;0.95;;;37.50;47.20;;;-144.05;24.27;125687.94;4921054;29;20036;-89
2022/08/04 10:55:39;;;;;;;3.10;1.30;;;37.60;47.90;;;-144.05;23.91;125687.94;4903874;29;20067;-88
2022/08/04 10:58:16;;;;;;;1.73;1.30;;;37.90;47.40;;;-144.05;23.95;125687.94;4920068;29;20035;-88
2022/08/04 11:00:46;;;;;;;4.78;1.27;;;37.80;47.70;;;-144.05;24.17;125687.94;4922314;29;20113;-87
2022/08/04 11:03:33;;;;;;;7.15;1.20;;;37.50;47.20;;;-144.05;23.90;125687.94;4915340;29;20032;-88
2022/08/04 11:06:02;;;;;;;2.63;1.20;;;37.40;46.90;;;-144.05;24.24;125687.94;4909030;29;20028;-89
2022/08/04 11:08:50;;;;;;;1.88;1.20;;;37.20;47.40;;;-144.05;25.24;125687.94;4921916;29;20474;-90
2022/08/04 11:12:17;;;;;;;3.30;1.27;;;37.20;49.90;;;-144.05;24.90;125687.94;4904155;29;20028;-93
2022/08/04 11:15:10;;;;;;;5.85;1.50;;;37.30;49.50;;;-144.05;24.59;125687.94;4865745;29;20072;-88
2022/08/04 11:17:49;;;;;;;3.55;1.15;;;37.50;49.00;;;-144.05;24.35;125687.94;4921935;29;20032;-88
2022/08/04 11:20:35;;;;;;;10.38;2.10;;;37.60;48.20;;;-144.05;24.72;125687.94;4920027;29;20091;-88
2022/08/04 11:23:10;;;;;;;6.50;1.50;;;37.00;48.00;;;-144.05;24.68;125687.94;4920720;29;20127;-90
2022/08/04 11:26:23;;;;;;;4.05;1.30;;;36.50;48.20;;;-144.05;24.32;125687.94;4920275;29;20040;-92
2022/08/04 11:29:21;;;;;;;6.60;1.42;;;36.70;48.80;;;-144.05;24.58;125687.94;4904785;29;20115;-88
2022/08/04 11:31:49;;;;;;;2.45;1.00;;;37.30;49.20;;;-144.05;24.32;125687.94;4904884;29;20027;-90
2022/08/04 11:34:26;;;;;;;4.82;1.50;;;37.20;47.60;;;-144.05;24.29;125687.94;4905106;29;20031;-89
2022/08/04 11:37:23;;;;;;;3.95;1.50;;;36.70;47.90;;;-144.05;25.63;125687.94;4905093;29;20032;-90
2022/08/04 11:40:22;;;;;;;8.23;1.63;;;36.40;50.20;;;-144.05;25.79;125687.94;4904770;29;20039;-89
2022/08/04 11:43:03;;;;;;;6.32;1.80;;;35.90;51.00;;;-144.05;26.31;125687.94;4904944;29;20565;-87
2022/08/04 11:45:54;;;;;;;7.50;1.90;;;35.50;51.70;;;-144.05;26.20;125687.94;4904820;29;20127;-88
2022/08/04 11:48:34;;;;;;;2.97;1.90;;;35.40;51.70;;;-144.05;26.66;125687.94;4905906;29;20031;-89
2022/08/04 11:51:04;;;;;;;9.20;1.70;;;35.40;52.90;;;-144.05;25.83;125687.94;4907568;29;20028;-87
2022/08/04 11:53:36;;;;;;;7.50;1.75;;;35.70;50.80;;;-144.05;24.60;125687.94;4922996;29;20028;-87
2022/08/04 11:56:10;;;;;;;4.07;1.67;;;36.40;48.10;;;-144.05;24.64;125687.94;4919317;29;20036;-91
2022/08/04 11:58:37;;;;;;;3.27;1.50;;;36.30;48.30;;;-144.05;26.17;125687.94;4908782;29;20036;-92
2022/08/04 12:01:37;;;;;;;5.82;1.80;;;35.70;51.00;;;-144.05;26.80;125687.94;4911101;29;20348;-88
2022/08/04 12:04:58;;;;;;;7.90;2.03;;;35.60;52.30;;;-144.05;26.22;125687.94;4907696;29;20020;-90
2022/08/04 12:08:16;;;;;;;3.88;1.95;;;35.40;50.50;;;-144.05;26.56;125687.94;4909343;29;20286;-87
2022/08/04 12:11:36;;;;;;;5.10;2.40;;;35.00;52.10;;;-144.05;27.06;125687.94;4905125;29;20087;-89
2022/08/04 12:14:53;;;;;;;5.32;2.15;;;34.60;53.40;;;-144.05;27.59;125687.94;4909499;29;20042;-86
2022/08/04 12:17:37;;;;;;;4.45;1.98;;;34.50;54.20;;;-144.05;27.19;125687.94;4906475;29;20027;-87
2022/08/04 12:20:09;;;;;;;4.38;1.98;;;34.50;53.20;;;-144.05;27.72;125687.94;4923007;29;20036;-89
2022/08/04 12:22:49;;;;;;;5.40;1.80;;;34.60;54.70;;;-144.05;27.87;125687.94;4907874;29;20032;-89
2022/08/04 12:25:35;;;;;;;7.93;2.45;;;34.70;55.10;;;-144.05;28.56;125687.94;4903494;29;20115;-90
2022/08/04 12:28:25;;;;;;;9.48;1.95;;;34.60;56.10;;;-144.05;28.64;125687.94;4920255;29;20032;-87
2022/08/04 12:31:09;;;;;;;8.10;1.88;;;34.40;56.00;;;-144.05;29.28;125687.94;4903506;29;20115;-87
2022/08/04 12:33:58;;;;;;;6.72;1.88;;;34.10;57.30;;;-144.05;29.01;125687.94;4919814;29;20051;-89
2022/08/04 12:37:34;;;;;;;7.13;2.28;;;33.70;56.90;;;-144.05;29.55;125687.94;4920500;29;20181;-87
2022/08/04 12:40:15;;;;;;;5.15;2.15;;;33.40;58.60;;;-144.05;29.63;125687.94;4925297;29;20028;-86
2022/08/04 12:43:17;;;;;;;4.85;1.60;;;33.20;58.80;;;-144.05;30.69;125687.94;4924452;29;20035;-89
2022/08/04 12:45:50;;;;;;;5.38;1.70;;;33.00;59.70;;;-144.05;30.69;125687.94;4905216;29;20571;-88
2022/08/04 12:48:24;;;;;;;3.75;1.60;;;32.80;60.00;;;-144.05;30.63;125687.94;4921807;29;20103;-88
2022/08/04 12:50:58;;;;;;;8.65;1.73;;;32.70;59.80;;;-144.05;30.99;125687.94;4921244;29;20031;-87
2022/08/04 12:53:39;;;;;;;6.80;1.88;;;32.50;60.80;;;-144.05;31.31;125687.94;4905158;29;20036;-88
2022/08/04 12:56:11;;;;;;;4.10;1.52;;;32.40;61.70;;;-144.05;31.44;125687.94;4900819;29;20032;-87
2022/08/04 12:58:45;;;;;;;5.55;1.50;;;32.40;62.00;;;-144.05;31.51;125687.94;4919643;29;20043;-86
2022/08/04 13:01:24;;;;;;;8.27;2.17;;;32.50;62.60;;;-144.05;31.71;125687.94;4900914;29;20055;-87
2022/08/04 13:04:01;;;;;;;14.13;2.47;;;32.60;63.40;;;-144.05;31.96;125687.94;4918354;29;20063;-87
2022/08/04 13:06:37;;;;;;;8.45;2.03;;;32.60;63.80;;;-144.05;32.12;125687.94;4915324;29;20091;-87
2022/08/04 13:09:19;;;;;;;8.05;2.08;;;32.70;64.20;;;-144.05;32.06;125687.94;4929555;29;20024;-89
2022/08/04 13:12:19;;;;;;;7.22;2.38;;;32.70;64.40;;;-144.05;31.76;125687.94;4903873;29;20042;-88
2022/08/04 13:14:57;;;;;;;5.28;1.80;;;32.80;64.00;;;-144.05;31.91;125687.94;4884244;29;20024;-87
2022/08/04 13:17:24;;;;;;;5.75;1.98;;;32.90;65.10;;;-144.05;31.48;125687.94;4882837;29;20053;-85
2022/08/04 13:19:53;;;;;;;5.28;2.00;;;32.80;62.90;;;-144.05;31.51;125687.94;4900316;29;20482;-88
2022/08/04 13:22:29;;;;;;;8.60;2.00;;;32.80;64.10;;;-144.05;31.68;125687.94;4900637;29;20545;-88
2022/08/04 13:24:59;;;;;;;5.28;1.95;;;32.80;63.90;;;-144.05;31.50;125687.94;4883247;29;20117;-90
2022/08/04 13:27:26;;;;;;;9.20;2.17;;;33.00;63.90;;;-144.05;31.52;125687.94;4903253;29;20032;-85
2022/08/04 13:29:56;;;;;;;6.78;2.15;;;33.40;64.20;;;-144.05;31.86;125687.94;4900858;29;20024;-89
2022/08/04 13:32:25;;;;;;;11.18;2.65;;;33.50;64.20;;;-144.05;31.29;125687.94;4888182;29;20035;-87
2022/08/04 13:34:56;;;;;;;8.27;2.35;;;33.90;63.90;;;-144.05;30.81;125687.94;4906428;29;20486;-89
2022/08/04 13:37:34;;;;;;;7.40;2.33;;;34.50;62.60;;;-144.05;30.16;125687.94;4907735;29;20036;-88
2022/08/04 13:40:10;;;;;;;6.53;1.92;;;34.70;61.40;;;-144.05;30.30;125687.94;4885042;29;20028;-89
2022/08/04 13:42:45;;;;;;;7.57;2.60;;;34.60;61.20;;;-144.05;30.05;125687.94;4883971;29;20119;-88
2022/08/04 13:45:12;;;;;;;;;;;34.80;61.20;;;-144.05;30.28;125687.94;4885751;29;20033;-88
2022/08/04 13:47:42;;;;;;;5.13;2.10;;;34.60;61.10;;;-144.05;30.10;125687.94;4884291;29;20010;-87
2022/08/04 13:50:19;;;;;;;5.07;2.03;;;34.40;60.60;;;-144.05;30.92;125687.94;4886562;29;20057;-89
2022/08/04 13:52:49;;;;;;;9.63;2.30;;;33.80;62.00;;;-144.05;31.56;125687.94;4902013;29;20084;-89
2022/08/04 13:55:34;;;;;;;6.32;2.20;;;33.40;63.20;;;-144.05;31.93;125687.94;4889552;29;20197;-87
2022/08/04 13:58:23;;;;;;;5.85;2.75;;;33.10;64.90;;;-144.05;32.59;125687.94;4905311;29;20035;-88
2022/08/04 14:01:26;;;;;;;4.78;2.20;;;32.60;66.40;;;-144.05;33.98;125687.94;4906843;29;20385;-90
2022/08/04 14:04:15;;;;;;;5.53;2.40;;;32.20;69.00;;;-144.05;33.72;125687.94;4892689;29;20032;-89
2022/08/04 14:06:57;;;;;;;6.07;2.13;;;32.00;69.30;;;-144.05;34.25;125687.94;4889218;29;20549;-89
2022/08/04 14:09:27;;;;;;;12.10;2.50;;;32.00;70.90;;;-144.05;34.43;125687.94;4888614;29;20036;-92
2022/08/04 14:12:07;;;;;;;7.82;2.53;;;31.90;70.70;;;-144.05;33.81;125687.94;4887713;29;20040;-87
2022/08/04 14:14:44;;;;;;;8.88;2.85;;;32.00;70.00;;;-144.05;33.97;125687.94;4903238;29;20029;-90
2022/08/04 14:17:17;;;;;;;7.90;2.70;;;32.20;71.20;;;-144.05;33.80;125687.94;4904531;29;20486;-89
2022/08/04 14:19:46;;;;;;;6.30;2.72;;;32.10;70.60;;;-144.05;34.24;125687.94;4886715;29;20398;-87
2022/08/04 14:22:33;;;;;;;5.88;1.98;;;31.90;71.50;;;-144.05;34.83;125687.94;4903273;29;20039;-89
2022/08/04 14:25:12;;;;;;;5.63;2.50;;;31.90;72.80;;;-144.05;34.64;125687.94;4887486;29;20058;-90
2022/08/04 14:27:56;;;;;;;8.55;2.70;;;31.80;72.30;;;-144.05;34.64;125687.94;4907249;29;20491;-89
2022/08/04 14:30:35;;;;;;;5.57;2.72;;;31.70;72.20;;;-144.05;35.10;125687.94;4887439;29;20033;-88
2022/08/04 14:33:11;;;;;;;4.60;2.67;;;31.70;74.00;;;-144.05;34.72;125687.94;4889127;29;20033;-89
2022/08/04 14:35:39;;;;;;;7.32;2.55;;;31.70;72.90;;;-144.05;35.50;125687.94;4892945;29;20029;-87
2022/08/04 14:38:10;;;;;;;5.75;2.58;;;31.70;74.80;;;-144.05;35.39;125687.94;4908854;29;20028;-88
2022/08/04 14:40:41;;;;;;;9.20;2.47;;;31.70;74.80;;;-144.05;35.04;125687.94;4889721;29;20575;-88
2022/08/04 14:43:08;;;;;;;5.50;2.20;;;31.80;74.40;;;-144.05;35.07;125687.94;4892756;29;20040;-87
2022/08/04 14:45:44;;;;;;;11.85;3.20;;;31.80;74.60;;;-144.05;35.05;125687.94;4890819;29;20036;-89
2022/08/04 14:48:14;;;;;;;5.25;2.47;;;31.70;74.10;;;-144.05;35.29;125687.94;4908639;29;20028;-88
2022/08/04 14:50:45;;;;;;;8.70;2.20;;;31.60;74.90;;;-144.05;35.59;125687.94;4908898;29;20032;-88
2022/08/04 14:53:25;;;;;;;5.22;2.60;;;31.50;76.00;;;-144.05;35.89;125687.94;4910765;29;20056;-87
2022/08/04 14:55:59;;;;;;;6.95;2.47;;;31.40;76.60;;;-144.05;36.20;125687.94;4887540;29;20037;-89
2022/08/04 14:58:35;;;;;;;4.28;2.67;;;31.30;77.50;;;-144.05;36.09;125687.94;4893082;29;20032;-89
2022/08/04 15:01:06;;;;;;;4.88;2.40;;;31.20;77.50;;;-144.05;36.48;125687.94;4894201;29;20462;-86
2022/08/04 15:03:38;;;;;;;4.75;1.90;;;31.10;79.00;;;-144.05;36.26;125687.94;4911438;29;20099;-87
2022/08/04 15:06:04;;;;;;;7.72;1.95;;;30.90;78.20;;;-144.05;36.47;125687.94;4895743;29;20044;-85
2022/08/04 15:08:31;;;;;;;5.63;2.40;;;30.90;78.50;;;-144.05;36.58;125687.94;4908399;29;20032;-86
2022/08/04 15:11:01;;;;;;;4.20;2.10;;;30.70;78.60;;;-144.05;36.54;125687.94;4915994;29;20037;-88
2022/08/04 15:13:32;;;;;;;6.25;2.25;;;30.60;78.40;;;-144.05;36.89;125687.94;4894802;29;20040;-86
2022/08/04 15:15:59;;;;;;;5.20;2.47;;;30.40;79.40;;;-144.05;36.92;125687.94;4890560;29;20038;-88
2022/08/04 15:18:29;;;;;;;6.47;2.40;;;30.20;79.70;;;-144.05;37.23;125687.94;4889099;29;20032;-88
2022/08/04 15:20:57;;;;;;;4.22;2.35;;;30.10;80.80;;;-144.05;37.77;125687.94;4888189;29;20039;-87
2022/08/04 15:23:24;;;;;;;5.38;2.63;;;29.90;82.30;;;-144.05;37.92;125687.94;4891073;29;20036;-86
2022/08/04 15:26:01;;;;;;;7.15;2.13;;;29.90;82.80;;;-144.05;37.98;125687.94;4893350;29;20033;-87
2022/08/04 15:28:33;;;;;;;8.43;2.35;;;29.80;83.60;;;-144.05;38.29;125687.94;4891795;29;20028;-87
2022/08/04 15:31:05;;;;;;;4.63;2.15;;;29.80;85.50;;;-144.05;38.74;125687.94;4895972;29;20013;-89
2022/08/04 15:33:40;;;;;;;5.68;2.45;;;29.70;87.10;;;-144.05;38.74;125687.94;4895697;29;20028;-88
2022/08/04 15:36:30;;;;;;;3.92;2.25;;;29.60;88.00;;;-144.05;38.34;125687.94;4891140;29;20032;-87
2022/08/04 15:39:25;;;;;;;5.65;1.85;;;29.50;86.90;;;-144.05;38.60;125687.94;4906590;29;20037;-88
2022/08/04 15:42:16;;;;;;;10.55;2.60;;;29.50;88.50;;;-144.05;38.88;125687.94;4885887;29;20095;-88
2022/08/04 15:44:50;;;;;;;4.93;2.33;;;29.50;90.20;;;-144.05;39.08;125687.94;4890595;29;20175;-88
2022/08/04 15:47:18;;;;;;;5.07;2.33;;;29.40;90.80;;;-144.05;38.54;125687.94;4904263;29;20087;-88
2022/08/04 15:50:00;;;;;;;6.15;2.13;;;29.40;90.50;;;-144.05;38.74;125687.94;4889731;29;20048;-87
2022/08/04 15:52:26;;;;;;;8.80;2.08;;;29.40;91.00;;;-144.05;38.83;125687.94;4890259;29;20021;-86
2022/08/04 15:58:03;;;;;;;5.97;1.95;;;29.30;92.70;;;-144.05;38.79;125687.94;4928051;29;20048;-88
2022/08/04 16:00:49;;;;;;;4.97;2.15;;;29.30;92.30;;;-144.05;38.71;125687.94;5043715;23;20058;-87
2022/08/04 16:03:37;;;;;;;4.57;2.28;;;29.40;92.80;;;-144.05;38.56;125687.94;4909590;29;20024;-87
2022/08/04 16:06:08;;;;;;;6.85;2.80;;;29.40;92.80;;;-144.05;38.88;125687.94;4927223;29;20113;-87
2022/08/04 16:09:00;;;;;;;7.53;2.45;;;29.40;93.90;;;-144.05;38.54;125687.94;4924583;29;20458;-88
2022/08/04 16:11:39;;;;;;;5.88;2.55;;;29.40;92.90;;;-144.05;38.59;125687.94;4905162;29;20031;-86
2022/08/04 16:14:06;;;;;;;7.82;2.67;;;29.40;93.40;;;-144.05;38.37;125687.94;4904493;29;20111;-88
2022/08/04 16:16:45;;;;;;;5.70;2.20;;;29.50;93.30;;;-144.05;38.22;125687.94;4888675;29;20040;-88
2022/08/04 16:19:47;;;;;;;5.90;2.20;;;29.40;92.60;;;-144.05;38.28;125687.94;4887469;29;20043;-88
2022/08/04 16:22:39;;;;;;;3.88;2.20;;;29.40;92.70;;;-144.05;37.92;125687.94;4901108;29;20040;-89
2022/08/04 16:25:08;;;;;;;4.00;1.98;;;29.30;92.30;;;-144.05;37.96;125687.94;4899350;29;20043;-85
2022/08/04 16:27:42;;;;;;;4.57;1.92;;;29.30;92.30;;;-144.05;38.02;125687.94;4900069;29;20108;-88
2022/08/04 16:30:13;;;;;;;3.88;2.00;;;29.10;92.30;;;-144.05;38.07;125687.94;4899660;29;20029;-85
2022/08/04 16:32:47;;;;;;;7.22;2.45;;;29.00;92.60;;;-144.05;38.53;125687.94;4883816;29;20025;-86
2022/08/04 16:35:27;;;;;;;5.28;1.75;;;28.90;93.30;;;-144.05;38.72;125687.94;4884603;29;20036;-89
2022/08/04 16:38:15;;;;;;;3.58;2.00;;;28.80;94.10;;;-144.05;39.44;125687.94;4903154;29;20040;-87
2022/08/04 16:40:45;;;;;;;7.70;2.45;;;28.70;95.20;;;-144.05;39.44;125687.94;4904976;29;20033;-87
2022/08/04 16:43:15;;;;;;;7.15;2.03;;;28.60;95.50;;;-144.05;39.67;125687.94;4902486;29;20033;-86
2022/08/04 16:46:00;;;;;;;5.75;2.33;;;28.50;96.00;;;-144.05;39.93;125687.94;4884876;29;20028;-87